createdAt,value
2023-03-19T00:00:45.986Z,13.40
2023-03-19T00:03:50.563Z,12.70
2023-03-19T00:06:54.439Z,12.73
2023-03-19T00:09:57.810Z,12.13
2023-03-19T00:13:01.061Z,13.17
2023-03-19T00:16:04.330Z,11.80
2023-03-19T00:19:08.881Z,12.33
2023-03-19T00:22:11.998Z,12.40
2023-03-19T00:25:15.174Z,11.63
2023-03-19T00:28:18.508Z,11.53
2023-03-19T00:31:21.896Z,10.70
2023-03-19T00:34:27.054Z,12.53
2023-03-19T00:37:30.201Z,12.50
2023-03-19T00:40:33.576Z,12.50
2023-03-19T00:43:36.895Z,12.90
2023-03-19T00:46:40.099Z,12.03
2023-03-19T00:49:44.673Z,12.47
2023-03-19T00:52:47.828Z,12.70
2023-03-19T00:55:50.951Z,12.00
2023-03-19T00:58:54.110Z,12.07
2023-03-19T01:01:57.328Z,13.87
2023-03-19T01:05:01.825Z,11.90
2023-03-19T01:08:05.046Z,12.57
2023-03-19T01:11:09.895Z,12.70
2023-03-19T01:14:13.124Z,10.57
2023-03-19T01:17:16.261Z,11.90
2023-03-19T01:20:24.044Z,11.60
2023-03-19T01:23:27.246Z,11.80
2023-03-19T01:26:30.830Z,12.73
2023-03-19T01:29:33.982Z,11.90
2023-03-19T01:32:37.227Z,12.00
2023-03-19T01:35:42.677Z,11.77
2023-03-19T01:38:45.978Z,12.40
2023-03-19T01:41:49.109Z,12.50
2023-03-19T01:44:52.244Z,12.23
2023-03-19T01:47:55.482Z,12.33
2023-03-19T01:51:02.225Z,11.17
2023-03-19T01:54:08.636Z,10.87
2023-03-19T01:57:14.404Z,12.57
2023-03-19T02:00:18.116Z,11.90
2023-03-19T02:03:22.174Z,11.90
2023-03-19T02:06:28.362Z,12.07
2023-03-19T02:09:33.241Z,11.00
2023-03-19T02:12:36.711Z,13.20
2023-03-19T02:15:40.192Z,11.73
2023-03-19T02:18:43.566Z,12.03
2023-03-19T02:21:48.099Z,12.47
2023-03-19T02:24:54.820Z,12.10
2023-03-19T02:27:59.717Z,12.50
2023-03-19T02:31:02.915Z,12.80
2023-03-19T02:34:07.853Z,12.20
2023-03-19T02:37:17.650Z,11.40
2023-03-19T02:40:25.673Z,10.60
2023-03-19T02:43:30.935Z,11.50
2023-03-19T02:46:34.304Z,12.07
2023-03-19T02:49:37.513Z,11.97
2023-03-19T02:52:40.739Z,14.10
2023-03-19T02:55:43.910Z,12.03
2023-03-19T02:58:48.422Z,11.80
2023-03-19T03:01:51.782Z,11.20
2023-03-19T03:04:54.911Z,11.20
2023-03-19T03:07:58.114Z,12.00
2023-03-19T03:11:01.241Z,12.10
2023-03-19T03:14:06.021Z,12.63
2023-03-19T03:17:09.517Z,10.93
2023-03-19T03:20:14.525Z,11.70
2023-03-19T03:23:17.822Z,13.17
2023-03-19T03:26:21.241Z,12.03
2023-03-19T03:29:25.756Z,12.13
2023-03-19T03:32:28.884Z,11.87
2023-03-19T03:35:32.568Z,11.87
2023-03-19T03:38:35.728Z,12.13
2023-03-19T03:41:38.971Z,12.73
2023-03-19T03:44:43.456Z,13.10
2023-03-19T03:47:47.521Z,11.60
2023-03-19T03:50:51.651Z,11.37
2023-03-19T03:53:54.797Z,13.77
2023-03-19T03:56:57.998Z,12.70
2023-03-19T04:00:02.526Z,13.30
2023-03-19T04:03:07.248Z,13.37
2023-03-19T04:06:14.594Z,12.27
2023-03-19T04:09:18.147Z,12.50
2023-03-19T04:12:21.834Z,12.33
2023-03-19T04:15:26.621Z,11.83
2023-03-19T04:18:29.744Z,12.87
2023-03-19T04:21:32.890Z,11.20
2023-03-19T04:24:36.442Z,12.30
2023-03-19T04:27:39.595Z,12.53
2023-03-19T04:30:44.908Z,12.97
2023-03-19T04:33:48.492Z,12.60
2023-03-19T04:36:51.910Z,13.80
2023-03-19T04:39:55.284Z,12.53
2023-03-19T04:42:58.422Z,12.70
2023-03-19T04:46:02.954Z,13.43
2023-03-19T04:49:06.096Z,12.43
2023-03-19T04:52:09.543Z,12.60
2023-03-19T04:55:13.212Z,13.33
2023-03-19T04:58:16.431Z,13.40
2023-03-19T05:01:21.064Z,14.00
2023-03-19T05:04:25.074Z,12.07
2023-03-19T05:07:28.282Z,12.17
2023-03-19T05:10:32.605Z,11.30
2023-03-19T05:13:35.910Z,12.80
2023-03-19T05:16:40.478Z,14.07
2023-03-19T05:19:43.912Z,11.63
2023-03-19T05:22:47.786Z,14.10
2023-03-19T05:25:50.909Z,11.80
2023-03-19T05:28:54.098Z,13.57
2023-03-19T05:31:58.558Z,12.10
2023-03-19T05:35:01.730Z,12.57
2023-03-19T05:38:04.883Z,12.83
2023-03-19T05:41:08.770Z,12.83
2023-03-19T05:44:12.005Z,12.30
2023-03-19T05:47:16.627Z,14.20
2023-03-19T05:50:20.124Z,12.37
2023-03-19T05:53:24.221Z,14.10
2023-03-19T05:56:27.377Z,13.10
2023-03-19T05:59:30.789Z,13.33
2023-03-19T06:02:35.737Z,11.97
2023-03-19T06:05:39.045Z,12.47
2023-03-19T06:08:42.937Z,12.13
2023-03-19T06:11:46.132Z,13.20
2023-03-19T06:14:49.254Z,14.30
2023-03-19T06:17:53.757Z,14.20
2023-03-19T06:20:56.926Z,14.33
2023-03-19T06:24:00.497Z,14.63
2023-03-19T06:27:03.681Z,13.90
2023-03-19T06:30:09.140Z,12.60
2023-03-19T06:33:14.422Z,12.10
2023-03-19T06:36:17.739Z,10.90
2023-03-19T06:39:21.212Z,11.60
2023-03-19T06:42:24.581Z,12.87
2023-03-19T06:45:28.126Z,12.60
2023-03-19T06:48:32.685Z,12.00
2023-03-19T06:51:35.841Z,13.20
2023-03-19T06:54:38.980Z,12.43
2023-03-19T06:57:42.112Z,13.20
2023-03-19T07:00:45.479Z,11.63
2023-03-19T07:03:50.057Z,13.33
2023-03-19T07:06:53.241Z,12.77
2023-03-19T07:09:56.565Z,12.33
2023-03-19T07:12:59.717Z,12.53
2023-03-19T07:16:02.837Z,12.07
2023-03-19T07:19:07.365Z,11.07
2023-03-19T07:22:10.576Z,11.63
2023-03-19T07:25:13.758Z,11.70
2023-03-19T07:28:18.042Z,12.87
2023-03-19T07:31:21.216Z,13.10
2023-03-19T07:34:26.372Z,14.37
2023-03-19T07:37:29.518Z,13.97
2023-03-19T07:40:33.001Z,14.80
2023-03-19T07:43:36.560Z,30.50
2023-03-19T07:46:39.802Z,14.87
2023-03-19T07:49:44.446Z,14.07
2023-03-19T07:52:48.154Z,14.10
2023-03-19T07:55:51.440Z,13.67
2023-03-19T07:58:54.642Z,13.30
2023-03-19T08:01:57.864Z,13.00
2023-03-19T08:05:04.837Z,13.47
2023-03-19T08:08:08.035Z,12.88
2023-03-19T08:11:11.713Z,14.20
2023-03-19T08:14:19.257Z,15.32
2023-03-19T08:17:22.548Z,14.57
2023-03-19T08:20:27.164Z,14.63
2023-03-19T08:23:30.613Z,14.95
2023-03-19T08:26:34.026Z,15.23
2023-03-19T08:29:37.502Z,14.60
2023-03-19T08:32:40.741Z,15.60
2023-03-19T08:35:45.355Z,15.15
2023-03-19T08:38:48.543Z,15.15
2023-03-19T08:41:51.682Z,15.20
2023-03-19T08:44:54.825Z,16.25
2023-03-19T08:47:59.047Z,15.35
2023-03-19T08:51:07.202Z,16.75
2023-03-19T08:54:11.326Z,16.75
2023-03-19T08:57:14.559Z,17.70
2023-03-19T09:00:19.529Z,18.70
2023-03-19T09:03:22.863Z,18.95
2023-03-19T09:06:27.403Z,18.25
2023-03-19T09:09:30.562Z,17.45
2023-03-19T09:12:34.012Z,17.38
2023-03-19T09:15:37.424Z,18.98
2023-03-19T09:18:40.705Z,15.68
2023-03-19T09:21:45.740Z,17.15
2023-03-19T09:24:48.944Z,18.17
2023-03-19T09:27:52.179Z,17.48
2023-03-19T09:30:56.135Z,18.40
2023-03-19T09:33:59.392Z,17.55
2023-03-19T09:37:03.967Z,14.95
2023-03-19T09:40:08.610Z,15.82
2023-03-19T09:43:31.887Z,15.13
2023-03-19T09:46:44.570Z,16.52
2023-03-19T09:49:49.541Z,16.50
2023-03-19T09:52:59.854Z,16.95
2023-03-19T09:56:06.720Z,16.60
2023-03-19T09:59:10.370Z,16.58
2023-03-19T10:02:41.423Z,16.48
2023-03-19T10:05:52.642Z,16.23
2023-03-19T10:09:13.434Z,17.10
2023-03-19T10:12:27.688Z,16.92
2023-03-19T10:15:32.405Z,16.08
2023-03-19T10:18:39.480Z,15.85
2023-03-19T10:21:47.374Z,15.77
2023-03-19T10:24:54.752Z,16.63
2023-03-19T10:28:06.626Z,15.68
2023-03-19T10:31:23.651Z,15.82
2023-03-19T10:34:35.611Z,16.02
2023-03-19T10:37:39.788Z,16.02
2023-03-19T10:40:52.437Z,15.85
2023-03-19T10:43:59.881Z,16.38
2023-03-19T10:47:13.254Z,16.77
2023-03-19T10:50:18.367Z,17.10
2023-03-19T10:53:31.977Z,16.33
2023-03-19T10:56:36.815Z,16.15
2023-03-19T10:59:40.131Z,16.95
2023-03-19T11:02:48.966Z,14.85
2023-03-19T11:06:06.616Z,16.23
2023-03-19T11:09:19.922Z,16.73
2023-03-19T11:12:28.308Z,14.80
2023-03-19T11:15:37.513Z,16.97
2023-03-19T11:18:41.235Z,15.70
2023-03-19T11:21:54.519Z,16.30
2023-03-19T11:25:01.375Z,16.07
2023-03-19T11:28:11.138Z,15.27
2023-03-19T11:31:21.066Z,16.53
2023-03-19T11:34:34.706Z,14.90
2023-03-19T11:37:51.970Z,16.63
2023-03-19T11:41:03.569Z,16.07
2023-03-19T11:44:16.156Z,16.00
2023-03-19T11:47:28.246Z,16.50
2023-03-19T11:50:41.491Z,15.40
2023-03-19T11:54:01.179Z,13.57
2023-03-19T11:57:09.736Z,16.25
2023-03-19T12:00:25.291Z,15.90
2023-03-19T12:04:10.322Z,16.10
2023-03-19T12:07:24.705Z,15.90
2023-03-19T12:10:36.046Z,16.85
2023-03-19T12:13:58.628Z,15.63
2023-03-19T12:17:17.233Z,16.08
2023-03-19T12:20:47.575Z,15.55
2023-03-19T12:24:03.915Z,16.25
2023-03-19T12:27:18.348Z,15.75
2023-03-19T12:30:30.774Z,15.65
2023-03-19T12:33:44.726Z,16.33
2023-03-19T12:36:53.958Z,17.55
2023-03-19T12:40:08.108Z,16.15
2023-03-19T12:43:18.977Z,15.98
2023-03-19T12:46:28.862Z,16.50
2023-03-19T12:49:39.070Z,15.00
2023-03-19T12:52:44.581Z,16.33
2023-03-19T12:55:51.496Z,15.95
2023-03-19T12:59:01.235Z,16.92
2023-03-19T13:02:13.732Z,16.02
2023-03-19T13:05:28.059Z,15.27
2023-03-19T13:08:34.847Z,15.50
2023-03-19T13:11:47.115Z,14.63
2023-03-19T13:14:58.156Z,15.93
2023-03-19T13:18:16.392Z,16.30
2023-03-19T13:21:26.283Z,16.77
2023-03-19T13:24:32.118Z,14.97
2023-03-19T13:27:37.538Z,14.33
2023-03-19T13:30:42.556Z,14.90
2023-03-19T13:33:55.880Z,13.83
2023-03-19T13:37:07.806Z,15.57
2023-03-19T13:40:40.992Z,14.60
2023-03-19T13:43:54.323Z,14.07
2023-03-19T13:46:57.713Z,14.47
2023-03-19T13:50:26.750Z,14.20
2023-03-19T13:53:43.831Z,12.83
2023-03-19T13:57:36.311Z,13.37
2023-03-19T14:00:59.498Z,16.80
2023-03-19T14:04:05.193Z,13.03
2023-03-19T14:07:17.215Z,13.73
2023-03-19T14:10:26.507Z,14.13
2023-03-19T14:13:36.335Z,14.80
2023-03-19T14:16:44.837Z,13.97
2023-03-19T14:19:48.299Z,14.03
2023-03-19T14:23:13.043Z,13.90
2023-03-19T14:26:20.610Z,13.93
2023-03-19T14:29:26.628Z,14.50
2023-03-19T14:32:35.996Z,14.90
2023-03-19T14:35:45.373Z,15.30
2023-03-19T14:38:52.152Z,13.83
2023-03-19T14:42:04.552Z,14.40
2023-03-19T14:45:45.024Z,13.50
2023-03-19T14:49:22.031Z,14.23
2023-03-19T14:52:29.618Z,13.70
2023-03-19T14:55:37.465Z,13.40
2023-03-19T14:58:51.397Z,13.47
2023-03-19T15:01:55.752Z,13.87
2023-03-19T15:05:00.801Z,12.33
2023-03-19T15:08:06.357Z,13.77
2023-03-19T15:11:31.514Z,12.23
2023-03-19T15:15:03.286Z,12.47
2023-03-19T15:18:11.519Z,15.30
2023-03-19T15:21:14.967Z,12.90
2023-03-19T15:24:19.216Z,12.43
2023-03-19T15:27:24.494Z,14.77
2023-03-19T15:30:30.952Z,14.63
2023-03-19T15:33:41.255Z,14.60
2023-03-19T15:36:48.286Z,13.80
2023-03-19T15:39:56.566Z,13.77
2023-03-19T15:43:04.173Z,13.47
2023-03-19T15:46:13.137Z,13.90
2023-03-19T15:49:21.018Z,16.23
2023-03-19T15:52:26.766Z,16.27
2023-03-19T15:55:35.017Z,14.77
2023-03-19T15:58:44.785Z,14.83
2023-03-19T16:01:51.546Z,13.40
2023-03-19T16:05:18.706Z,13.50
2023-03-19T16:08:23.886Z,12.70
2023-03-19T16:11:31.388Z,12.73
2023-03-19T16:14:43.864Z,14.70
2023-03-19T16:17:53.015Z,12.70
2023-03-19T16:21:16.608Z,12.73
2023-03-19T16:24:27.904Z,13.73
2023-03-19T16:27:38.331Z,12.70
2023-03-19T16:30:51.933Z,13.47
2023-03-19T16:33:58.767Z,12.77
2023-03-19T16:37:04.795Z,12.73
2023-03-19T16:40:43.669Z,12.73
2023-03-19T16:43:49.208Z,14.30
2023-03-19T16:46:53.298Z,13.40
2023-03-19T16:50:02.593Z,13.10
2023-03-19T16:53:13.976Z,13.57
2023-03-19T16:56:20.524Z,12.87
2023-03-19T16:59:33.266Z,14.23
2023-03-19T17:02:38.277Z,14.97
2023-03-19T17:05:47.172Z,13.33
2023-03-19T17:08:52.227Z,11.90
2023-03-19T17:11:57.932Z,15.10
2023-03-19T17:15:02.632Z,16.23
2023-03-19T17:18:17.305Z,13.60
2023-03-19T17:21:26.659Z,14.00
2023-03-19T17:24:33.093Z,14.87
2023-03-19T17:27:38.836Z,14.10
2023-03-19T17:30:43.078Z,15.10
2023-03-19T17:33:48.402Z,15.40
2023-03-19T17:37:01.456Z,16.20
2023-03-19T17:40:17.133Z,16.30
2023-03-19T17:43:30.885Z,14.17
2023-03-19T17:46:39.964Z,14.67
2023-03-19T17:49:46.973Z,13.33
2023-03-19T17:52:54.268Z,14.10
2023-03-19T17:56:00.343Z,13.47
2023-03-19T17:59:07.198Z,13.93
2023-03-19T18:02:27.276Z,12.43
2023-03-19T18:05:32.633Z,12.50
2023-03-19T18:08:41.081Z,13.10
2023-03-19T18:11:47.716Z,12.70
2023-03-19T18:14:53.633Z,12.60
2023-03-19T18:18:02.056Z,13.27
2023-03-19T18:21:06.563Z,13.20
2023-03-19T18:24:14.694Z,12.43
2023-03-19T18:27:22.910Z,12.80
2023-03-19T18:30:28.879Z,13.17
2023-03-19T18:33:35.069Z,17.23
2023-03-19T18:36:43.487Z,13.50
2023-03-19T18:39:50.494Z,14.40
2023-03-19T18:42:58.224Z,14.13
2023-03-19T18:46:02.962Z,15.20
2023-03-19T18:49:19.902Z,16.30
2023-03-19T18:52:24.656Z,16.20
2023-03-19T18:55:34.716Z,15.60
2023-03-19T18:58:41.970Z,16.70
2023-03-19T19:01:52.866Z,17.83
2023-03-19T19:04:57.845Z,16.23
2023-03-19T19:08:04.263Z,15.50
2023-03-19T19:11:11.023Z,17.70
2023-03-19T19:14:20.546Z,16.00
2023-03-19T19:17:29.845Z,16.67
2023-03-19T19:20:35.287Z,17.57
2023-03-19T19:23:44.556Z,16.27
2023-03-19T19:26:54.599Z,17.53
2023-03-19T19:30:02.590Z,17.40
2023-03-19T19:33:13.277Z,16.83
2023-03-19T19:36:18.672Z,17.60
2023-03-19T19:39:23.988Z,17.17
2023-03-19T19:42:31.028Z,16.47
2023-03-19T19:45:39.345Z,17.17
2023-03-19T19:48:45.824Z,17.23
2023-03-19T19:51:51.642Z,19.07
2023-03-19T19:54:57.435Z,16.40
2023-03-19T19:58:07.446Z,18.83
2023-03-19T20:01:19.965Z,17.00
2023-03-19T20:04:29.238Z,18.10
2023-03-19T20:07:35.388Z,17.77
2023-03-19T20:10:43.086Z,17.97
2023-03-19T20:13:51.725Z,17.80
2023-03-19T20:16:58.911Z,18.27
2023-03-19T20:20:05.078Z,18.47
2023-03-19T20:23:10.949Z,17.90
2023-03-19T20:26:17.616Z,19.47
2023-03-19T20:29:23.975Z,17.47
2023-03-19T20:32:34.981Z,17.50
2023-03-19T20:35:40.628Z,17.37
2023-03-19T20:38:46.118Z,18.00
2023-03-19T20:41:52.224Z,19.40
2023-03-19T20:45:01.973Z,18.53
2023-03-19T20:48:13.676Z,18.37
2023-03-19T20:51:22.068Z,18.33
2023-03-19T20:54:28.490Z,19.23
2023-03-19T20:57:33.809Z,17.53
2023-03-19T21:00:40.162Z,18.90
2023-03-19T21:03:44.062Z,16.60
2023-03-19T21:06:53.532Z,17.80
2023-03-19T21:10:02.637Z,19.10
2023-03-19T21:13:11.457Z,18.40
2023-03-19T21:16:24.467Z,22.53
2023-03-19T21:19:29.187Z,22.73
2023-03-19T21:22:37.612Z,19.30
2023-03-19T21:25:42.983Z,17.53
2023-03-19T21:28:49.116Z,22.33
2023-03-19T21:31:55.751Z,18.30
2023-03-19T21:35:03.986Z,18.67
2023-03-19T21:38:07.654Z,18.80
2023-03-19T21:41:20.351Z,18.80
2023-03-19T21:44:24.587Z,18.07
2023-03-19T21:47:29.304Z,16.43
2023-03-19T21:50:33.257Z,17.73
2023-03-19T21:53:36.454Z,17.20
2023-03-19T21:56:42.647Z,20.47
2023-03-19T21:59:47.149Z,25.40
2023-03-19T22:02:52.438Z,24.20
2023-03-19T22:05:56.913Z,31.17
2023-03-19T22:09:00.276Z,26.20
2023-03-19T22:12:03.515Z,18.13
2023-03-19T22:15:08.288Z,15.90
2023-03-19T22:18:15.811Z,15.93
2023-03-19T22:21:21.234Z,14.87
2023-03-19T22:24:24.442Z,15.17
2023-03-19T22:27:27.578Z,15.80
2023-03-19T22:30:37.049Z,15.80
2023-03-19T22:33:41.619Z,16.10
2023-03-19T22:36:44.844Z,14.93
2023-03-19T22:39:47.999Z,12.80
2023-03-19T22:42:51.145Z,14.10
2023-03-19T22:45:56.555Z,13.20
2023-03-19T22:49:01.677Z,14.40
2023-03-19T22:52:05.049Z,14.63
2023-03-19T22:55:09.151Z,13.67
2023-03-19T22:58:12.298Z,15.13
2023-03-19T23:01:35.842Z,13.17
2023-03-19T23:04:40.697Z,14.40
2023-03-19T23:07:43.863Z,14.27
2023-03-19T23:10:48.420Z,14.83
2023-03-19T23:13:51.695Z,13.63
2023-03-19T23:16:55.837Z,12.90
2023-03-19T23:20:00.700Z,13.80
2023-03-19T23:23:03.865Z,14.17
2023-03-19T23:26:07.531Z,15.13
2023-03-19T23:29:18.831Z,15.00
2023-03-19T23:32:22.026Z,15.70
2023-03-19T23:35:29.626Z,14.70
2023-03-19T23:38:32.887Z,12.50
2023-03-19T23:41:38.058Z,13.97
2023-03-19T23:44:42.211Z,13.50
2023-03-19T23:47:45.539Z,13.90
2023-03-19T23:50:50.651Z,12.70
2023-03-19T23:53:53.810Z,13.10
2023-03-19T23:56:59.753Z,12.83
